Time;durP1;ratioP1;P1;durP2;ratioP2;P2;SDS_P1;SDS_P2;PMS_P1;PMS_P2;Temp;Humidity;BMP_temperature;BMP_pressure;BME280_temperature;BME280_humidity;BME280_pressure;Samples;Min_cycle;Max_cycle;Signal;HPM_P1;HPM_P2
2023/03/13 00:02:33;;;;;;;7.88;2.85;;;;;;;5.25;100.00;92572.19;4980608;28;20027;-79
2023/03/13 00:05:07;;;;;;;4.60;2.72;;;;;;;5.25;100.00;92575.53;4978479;28;20034;-79
2023/03/13 00:07:37;;;;;;;4.82;2.80;;;;;;;5.26;100.00;92568.53;4979116;28;20137;-79
2023/03/13 00:10:09;;;;;;;8.02;3.05;;;;;;;5.26;100.00;92571.13;4993645;28;20031;-79
2023/03/13 00:12:41;;;;;;;5.43;3.08;;;;;;;5.25;100.00;92572.94;4979446;28;20045;-79
2023/03/13 00:15:26;;;;;;;4.67;2.80;;;;;;;5.24;100.00;92573.97;4978985;28;20070;-79
2023/03/13 00:17:59;;;;;;;6.32;2.95;;;;;;;5.24;100.00;92575.78;4978767;28;20050;-79
2023/03/13 00:20:32;;;;;;;6.32;2.95;;;;;;;5.27;100.00;92573.50;4979282;28;20042;-79
2023/03/13 00:22:57;;;;;;;4.75;2.65;;;;;;;5.19;100.00;92566.94;4978659;28;20035;-79
2023/03/13 00:25:26;;;;;;;5.63;3.10;;;;;;;5.22;100.00;92576.03;4962583;28;20026;-79
2023/03/13 00:27:52;;;;;;;4.57;2.97;;;;;;;5.19;100.00;92566.94;4993747;28;20059;-79
2023/03/13 00:30:48;;;;;;;7.53;2.83;;;;;;;5.17;100.00;92561.22;4976812;28;20039;-80
2023/03/13 00:33:14;;;;;;;5.78;2.85;;;;;;;5.16;100.00;92557.06;4962637;28;20031;-79
2023/03/13 00:35:40;;;;;;;5.32;2.83;;;;;;;5.19;100.00;92550.59;4994987;28;20035;-79
2023/03/13 00:38:13;;;;;;;4.95;2.90;;;;;;;5.23;100.00;92546.47;4979352;28;20035;-79
2023/03/13 00:40:59;;;;;;;6.03;3.10;;;;;;;5.24;100.00;92545.41;4978747;28;20058;-79
2023/03/13 00:43:27;;;;;;;7.22;3.03;;;;;;;5.26;100.00;92550.38;4978068;28;20054;-79
2023/03/13 00:45:55;;;;;;;7.93;3.00;;;;;;;5.27;100.00;92549.31;4980211;28;20023;-79
2023/03/13 00:48:22;;;;;;;7.57;3.00;;;;;;;5.26;100.00;92547.78;4978007;28;20046;-79
2023/03/13 00:50:52;;;;;;;4.32;2.75;;;;;;;5.29;100.00;92544.66;4977883;28;20043;-79
2023/03/13 00:53:23;;;;;;;5.50;3.05;;;;;;;5.29;100.00;92539.47;4977917;28;20408;-79
2023/03/13 00:56:02;;;;;;;5.68;2.83;;;;;;;5.22;100.00;92537.91;4977875;28;20096;-79
2023/03/13 00:58:31;;;;;;;5.00;3.13;;;;;;;5.22;100.00;92540.50;4978506;28;20042;-79
2023/03/13 01:01:10;;;;;;;6.13;3.40;;;;;;;5.22;100.00;92539.69;4978127;28;20051;-79
2023/03/13 01:03:41;;;;;;;4.82;2.78;;;;;;;5.21;100.00;92544.09;4979492;28;20035;-79
2023/03/13 01:06:34;;;;;;;6.47;2.80;;;;;;;5.26;100.00;92547.78;4979014;28;20041;-79
2023/03/13 01:09:00;;;;;;;5.30;3.10;;;;;;;5.30;100.00;92535.88;4976978;28;20069;-79
2023/03/13 01:11:31;;;;;;;6.18;2.78;;;;;;;5.30;100.00;92530.66;4976808;28;20031;-79
2023/03/13 01:13:58;;;;;;;7.25;3.22;;;;;;;5.35;100.00;92536.66;4978257;28;20046;-79
2023/03/13 01:16:29;;;;;;;5.47;3.08;;;;;;;5.38;100.00;92537.97;4976905;28;20026;-79
2023/03/13 01:19:02;;;;;;;4.38;2.50;;;;;;;5.38;100.00;92535.38;4978217;28;20035;-79
2023/03/13 01:21:37;;;;;;;4.47;2.90;;;;;;;5.37;100.00;92537.19;4976870;28;20031;-79
2023/03/13 01:24:13;;;;;;;4.00;2.70;;;;;;;5.39;100.00;92531.75;4976506;28;20039;-79
2023/03/13 01:26:48;;;;;;;5.75;3.10;;;;;;;5.39;100.00;92529.16;4992760;28;20050;-79
2023/03/13 01:29:22;;;;;;;4.38;2.67;;;;;;;5.39;100.00;92532.53;4960679;28;20039;-79
2023/03/13 01:32:14;;;;;;;4.70;2.70;;;;;;;5.38;100.00;92540.56;4977091;28;20042;-79
2023/03/13 01:34:40;;;;;;;5.88;3.10;;;;;;;5.40;100.00;92544.47;4978508;28;20134;-79
2023/03/13 01:37:13;;;;;;;6.22;2.90;;;;;;;5.40;100.00;92543.69;4977627;28;20031;-79
2023/03/13 01:39:40;;;;;;;4.97;2.63;;;;;;;5.40;100.00;92536.69;4977356;28;20038;-79
2023/03/13 01:42:06;;;;;;;5.35;2.83;;;;;;;5.42;100.00;92550.19;4978626;28;20404;-79
2023/03/13 01:44:55;;;;;;;5.18;3.05;;;;;;;5.46;100.00;92549.69;4976353;28;20102;-79
2023/03/13 01:47:30;;;;;;;4.45;2.70;;;;;;;5.47;100.00;92538.25;4977335;28;20531;-79
2023/03/13 01:50:11;;;;;;;5.60;2.80;;;;;;;5.50;100.00;92546.34;4976054;28;20049;-79
2023/03/13 01:52:54;;;;;;;5.68;2.88;;;;;;;5.52;100.00;92533.88;4977424;28;20039;-79
2023/03/13 01:55:29;;;;;;;4.55;2.55;;;;;;;5.53;100.00;92519.09;4977535;28;20078;-79
2023/03/13 01:58:07;;;;;;;4.88;2.92;;;;;;;5.57;100.00;92520.91;4978059;28;20544;-79
2023/03/13 02:00:35;;;;;;;4.38;2.80;;;;;;;5.59;100.00;92528.47;4962084;28;20039;-79
2023/03/13 02:03:11;;;;;;;3.80;2.60;;;;;;;5.59;100.00;92518.06;4978449;28;20098;-79
2023/03/13 02:05:49;;;;;;;7.80;2.78;;;;;;;5.55;100.00;92507.41;4977376;28;20041;-79
2023/03/13 02:08:36;;;;;;;5.72;2.92;;;;;;;5.59;100.00;92515.47;4976961;28;20401;-79
2023/03/13 02:11:42;;;;;;;4.68;2.58;;;;;;;5.57;100.00;92520.91;4977431;28;20066;-79
2023/03/13 02:14:25;;;;;;;4.45;2.75;;;;;;;5.55;100.00;92517.78;4977534;28;20034;-79
2023/03/13 02:16:55;;;;;;;6.85;2.78;;;;;;;5.55;100.00;92517.78;4976889;28;20045;-79
2023/03/13 02:19:52;;;;;;;5.32;3.03;;;;;;;5.57;100.00;92523.50;4977326;28;20038;-79
2023/03/13 02:22:53;;;;;;;5.38;2.70;;;;;;;5.58;100.00;92513.91;4961913;28;20034;-79
2023/03/13 02:25:24;;;;;;;5.85;2.85;;;;;;;5.56;100.00;92513.38;4977608;28;20046;-79
2023/03/13 02:28:04;;;;;;;6.45;2.95;;;;;;;5.56;100.00;92514.19;4977020;28;20047;-79
2023/03/13 02:31:12;;;;;;;5.32;2.78;;;;;;;5.53;100.00;92514.66;4976813;28;20049;-79
2023/03/13 02:33:50;;;;;;;5.03;2.70;;;;;;;5.50;100.00;92517.78;4981851;28;20086;-79
2023/03/13 02:36:26;;;;;;;5.32;3.20;;;;;;;5.49;100.00;92520.63;4980965;28;20386;-79
2023/03/13 02:39:01;;;;;;;4.50;2.90;;;;;;;5.51;100.00;92516.72;4983171;28;20063;-79
2023/03/13 02:41:41;;;;;;;5.10;2.85;;;;;;;5.47;100.00;92510.50;4980747;28;20043;-79
2023/03/13 02:44:08;;;;;;;6.05;3.20;;;;;;;5.49;100.00;92525.81;4981203;28;20046;-79
2023/03/13 02:46:51;;;;;;;5.30;2.95;;;;;;;5.47;100.00;92533.06;4982223;28;20027;-79
2023/03/13 02:49:31;;;;;;;5.00;2.95;;;;;;;5.41;100.00;92521.91;4980755;28;20074;-79
2023/03/13 02:52:04;;;;;;;5.93;3.20;;;;;;;5.40;100.00;92513.34;4980757;28;20057;-79
2023/03/13 02:54:36;;;;;;;6.32;3.10;;;;;;;5.41;100.00;92521.91;4981584;28;20039;-79
2023/03/13 02:57:06;;;;;;;4.80;2.97;;;;;;;5.40;100.00;92515.13;4980830;28;20054;-79
2023/03/13 02:59:33;;;;;;;5.38;2.88;;;;;;;5.42;100.00;92519.03;4980401;28;20065;-79
2023/03/13 03:02:03;;;;;;;5.03;2.92;;;;;;;5.43;100.00;92517.22;4980372;28;20050;-79
2023/03/13 03:04:33;;;;;;;5.95;2.92;;;;;;;5.44;100.00;92529.16;4963917;28;20039;-78
2023/03/13 03:07:08;;;;;;;5.55;2.88;;;;;;;5.47;100.00;92520.88;4981170;28;20047;-79
2023/03/13 03:09:35;;;;;;;5.32;2.45;;;;;;;5.41;100.00;92506.31;4980469;28;20443;-79
2023/03/13 03:12:07;;;;;;;5.35;2.60;;;;;;;5.62;100.00;92526.13;4980431;28;20392;-79
2023/03/13 03:14:49;;;;;;;5.97;3.00;;;;;;;5.68;100.00;92531.34;4980232;28;20110;-79
2023/03/13 03:17:20;;;;;;;6.50;2.75;;;;;;;5.72;100.00;92533.19;4980254;28;20038;-79
2023/03/13 03:19:48;;;;;;;5.15;2.70;;;;;;;5.79;100.00;92538.16;4963769;28;20048;-79
2023/03/13 03:22:15;;;;;;;4.60;2.70;;;;;;;5.81;100.00;92552.44;4979760;28;20034;-79
2023/03/13 03:24:41;;;;;;;5.82;2.72;;;;;;;5.79;100.00;92548.53;4979852;28;20145;-79
2023/03/13 03:27:06;;;;;;;5.75;2.70;;;;;;;5.82;100.00;92551.41;4979812;28;20109;-79
2023/03/13 03:29:39;;;;;;;5.18;3.20;;;;;;;5.80;100.00;92550.09;4979635;28;20401;-79
2023/03/13 03:32:08;;;;;;;5.43;2.67;;;;;;;5.85;100.00;92563.09;4979828;28;20073;-79
2023/03/13 03:34:39;;;;;;;4.82;2.45;;;;;;;5.84;100.00;92570.09;4981877;28;20042;-79
2023/03/13 03:37:17;;;;;;;4.97;2.67;;;;;;;5.79;100.00;92574.53;4980055;28;20031;-79
2023/03/13 03:39:43;;;;;;;4.30;2.75;;;;;;;5.79;100.00;92575.28;4979658;28;20038;-79
2023/03/13 03:42:19;;;;;;;4.95;2.47;;;;;;;5.76;100.00;92569.81;4979603;28;20527;-79
2023/03/13 03:44:50;;;;;;;7.40;2.83;;;;;;;5.73;100.00;92565.13;4979461;28;20034;-79
2023/03/13 03:47:31;;;;;;;;;;;;;;;5.74;100.00;92579.66;4980657;28;20031;-79
2023/03/13 03:50:06;;;;;;;4.78;2.67;;;;;;;5.67;100.00;92571.34;4979679;28;19965;-79
2023/03/13 03:52:41;;;;;;;3.78;2.50;;;;;;;5.71;100.00;92569.78;4979731;28;20046;-79
2023/03/13 03:55:07;;;;;;;4.45;2.70;;;;;;;5.68;100.00;92575.50;4978870;28;20442;-79
2023/03/13 03:57:37;;;;;;;5.95;2.90;;;;;;;5.67;100.00;92584.31;4979733;28;20023;-79
2023/03/13 04:00:09;;;;;;;6.15;2.75;;;;;;;5.67;100.00;92581.72;4979562;28;20101;-79
2023/03/13 04:02:44;;;;;;;5.77;3.17;;;;;;;5.63;100.00;92577.03;4994592;28;20046;-79
2023/03/13 04:05:49;;;;;;;5.93;3.05;;;;;;;5.75;100.00;92578.66;4978934;28;20352;-79
2023/03/13 04:08:19;;;;;;;5.00;2.83;;;;;;;5.64;100.00;92581.19;4979010;28;20405;-79
2023/03/13 04:10:48;;;;;;;5.78;2.92;;;;;;;5.62;100.00;92578.06;4978370;28;20040;-79
2023/03/13 04:13:24;;;;;;;5.10;3.00;;;;;;;5.61;100.00;92583.53;4978822;28;20086;-79
2023/03/13 04:15:53;;;;;;;5.35;2.80;;;;;;;5.61;100.00;92584.31;4979252;28;20062;-79
2023/03/13 04:18:26;;;;;;;6.15;2.53;;;;;;;5.59;100.00;92573.38;4980073;28;20165;-79
2023/03/13 04:21:01;;;;;;;4.72;2.92;;;;;;;5.60;100.00;92574.94;4979634;28;20043;-79
2023/03/13 04:23:39;;;;;;;5.07;2.75;;;;;;;5.59;100.00;92575.97;4978638;28;20039;-79
2023/03/13 04:26:11;;;;;;;6.32;2.80;;;;;;;5.58;100.00;92571.84;4980298;28;20042;-79
2023/03/13 04:28:43;;;;;;;5.53;3.10;;;;;;;5.55;100.00;92564.53;4978663;28;20525;-79
2023/03/13 04:31:16;;;;;;;4.88;3.00;;;;;;;5.54;100.00;92568.19;4978425;28;20396;-79
2023/03/13 04:34:13;;;;;;;5.93;3.08;;;;;;;5.55;100.00;92563.75;4969738;28;20085;-79
2023/03/13 04:36:58;;;;;;;4.03;2.85;;;;;;;5.52;100.00;92554.66;4980341;28;20038;-79
2023/03/13 04:39:54;;;;;;;5.25;3.00;;;;;;;5.54;100.00;92557.78;4978101;28;20121;-79
2023/03/13 04:43:08;;;;;;;7.10;3.03;;;;;;;5.54;100.00;92568.19;4969327;28;20090;-79
2023/03/13 04:45:53;;;;;;;6.77;3.07;;;;;;;5.52;100.00;92570.25;4979821;28;20073;-79
2023/03/13 04:48:48;;;;;;;4.45;2.75;;;;;;;5.52;100.00;92575.44;4989315;28;20106;-79
2023/03/13 04:51:40;;;;;;;5.75;2.85;;;;;;;5.50;100.00;92580.09;4977892;28;20053;-79
2023/03/13 04:54:38;;;;;;;8.35;2.80;;;;;;;5.49;100.00;92581.13;4977379;28;20057;-79
2023/03/13 04:57:39;;;;;;;4.78;2.80;;;;;;;5.49;100.00;92580.34;4964814;28;20454;-79
2023/03/13 05:00:44;;;;;;;6.53;2.90;;;;;;;5.48;100.00;92583.97;4927139;29;20050;-79
2023/03/13 05:03:22;;;;;;;4.95;2.88;;;;;;;5.46;100.00;92586.03;4972302;28;20408;-79
2023/03/13 05:06:14;;;;;;;6.82;2.70;;;;;;;5.43;100.00;92593.31;4978422;28;20051;-77
2023/03/13 05:08:43;;;;;;;5.95;2.95;;;;;;;5.43;100.00;92593.31;4979999;28;20077;-79
2023/03/13 05:11:23;;;;;;;5.07;2.92;;;;;;;5.41;100.00;92602.38;4979964;28;20026;-79
2023/03/13 05:14:51;;;;;;;6.22;3.30;;;;;;;5.43;100.00;92595.13;4938765;29;20087;-79
2023/03/13 05:17:52;;;;;;;5.75;3.10;;;;;;;5.42;100.00;92594.31;4938243;29;20109;-79
2023/03/13 05:20:43;;;;;;;6.80;3.00;;;;;;;5.43;100.00;92597.72;4938541;29;20422;-79
2023/03/13 05:23:25;;;;;;;6.32;3.28;;;;;;;5.41;100.00;92594.59;4922800;29;20502;-79
2023/03/13 05:26:19;;;;;;;6.50;3.08;;;;;;;5.41;100.00;92589.41;4881322;29;20178;-78
2023/03/13 05:29:19;;;;;;;6.95;3.25;;;;;;;5.42;100.00;92589.13;4933149;29;20060;-78
2023/03/13 05:32:07;;;;;;;6.72;2.88;;;;;;;5.40;100.00;92582.63;4960810;28;20105;-78
2023/03/13 05:35:01;;;;;;;5.35;2.88;;;;;;;5.42;100.00;92586.53;4977803;28;20049;-79
2023/03/13 05:37:54;;;;;;;5.28;2.83;;;;;;;5.42;100.00;92583.94;4978826;28;20054;-82
2023/03/13 05:40:26;;;;;;;6.00;2.90;;;;;;;5.48;100.00;92589.94;4978542;28;20086;-82
2023/03/13 05:43:12;;;;;;;5.93;3.03;;;;;;;5.42;100.00;92585.75;4978637;28;20062;-80
2023/03/13 05:45:48;;;;;;;6.68;3.38;;;;;;;5.39;100.00;92591.47;4977772;28;20048;-80
2023/03/13 05:52:37;;;;;;;;;;;;;;;5.33;100.00;92598.41;4978958;28;20113;-81
2023/03/13 05:55:43;;;;;;;4.93;3.30;;;;;;;5.32;100.00;92590.91;4957232;29;19977;-82
2023/03/13 05:58:31;;;;;;;5.53;3.00;;;;;;;5.34;100.00;92594.03;4942714;29;20046;-78
2023/03/13 06:01:32;;;;;;;5.75;3.17;;;;;;;5.38;100.00;92601.06;4993635;28;20042;-78
2023/03/13 06:04:08;;;;;;;9.32;3.58;;;;;;;5.41;100.00;92594.59;4963368;28;20039;-79
2023/03/13 06:07:21;;;;;;;6.07;3.20;;;;;;;5.52;100.00;92585.81;4977302;28;20133;-81
2023/03/13 06:09:50;;;;;;;5.50;3.40;;;;;;;5.57;100.00;92575.44;4980761;28;20606;-81
2023/03/13 06:13:12;;;;;;;6.03;3.20;;;;;;;5.63;100.00;92579.66;4981042;28;20497;-81
2023/03/13 06:15:55;;;;;;;4.57;2.80;;;;;;;5.64;100.00;92580.41;4981185;28;20045;-81
2023/03/13 06:19:30;;;;;;;8.00;3.15;;;;;;;5.74;100.00;92574.47;4981817;28;20046;-81
2023/03/13 06:22:06;;;;;;;5.22;2.90;;;;;;;5.93;100.00;92562.59;4983145;28;20099;-81
2023/03/13 06:24:45;;;;;;;4.93;3.35;;;;;;;5.84;100.00;92564.13;4980883;28;20501;-81
2023/03/13 06:27:11;;;;;;;4.82;3.13;;;;;;;6.36;100.00;92562.47;4980202;28;20059;-81
2023/03/13 06:33:57;;;;;;;4.30;2.97;;;;;;;6.66;100.00;92556.53;4982864;28;20045;-81
2023/03/13 06:36:29;;;;;;;5.78;3.38;;;;;;;6.63;100.00;92552.63;4982710;28;20046;-81
2023/03/13 06:39:13;;;;;;;5.00;3.20;;;;;;;6.59;100.00;92550.81;4981233;28;20081;-81
2023/03/13 06:41:47;;;;;;;6.20;3.47;;;;;;;6.67;100.00;92545.09;4981507;28;20066;-79
2023/03/13 06:52:01;;;;;;;5.13;3.10;;;;;;;7.71;100.00;92568.09;4982570;28;20038;-80
2023/03/13 06:54:27;;;;;;;7.15;3.40;;;;;;;8.04;100.00;92569.28;4973406;28;20039;-79
2023/03/13 06:56:52;;;;;;;6.05;3.47;;;;;;;8.12;100.00;92571.31;4980472;28;20041;-78
2023/03/13 06:59:18;;;;;;;5.70;3.05;;;;;;;8.09;100.00;92558.81;4970439;28;20386;-79
2023/03/13 07:01:46;;;;;;;5.55;2.72;;;;;;;8.06;100.00;92564.56;4977349;28;20411;-78
2023/03/13 07:04:12;;;;;;;5.60;3.28;;;;;;;7.96;100.00;92569.81;4974970;28;20126;-80
2023/03/13 07:06:38;;;;;;;6.55;3.38;;;;;;;7.91;100.00;92577.66;4971741;28;20027;-81
2023/03/13 07:09:04;;;;;;;7.55;3.50;;;;;;;7.68;100.00;92579.84;4975516;28;20038;-79
2023/03/13 07:11:38;;;;;;;5.57;3.00;;;;;;;7.56;100.00;92581.16;4973120;28;20035;-79
2023/03/13 07:14:04;;;;;;;5.30;3.20;;;;;;;7.53;100.00;92585.06;4960057;29;20512;-79
2023/03/13 07:16:30;;;;;;;5.97;3.22;;;;;;;7.85;100.00;92581.34;4972154;28;20042;-79
2023/03/13 07:18:56;;;;;;;5.75;2.97;;;;;;;7.63;100.00;92590.28;4995974;28;20039;-79
2023/03/13 07:21:22;;;;;;;5.47;2.90;;;;;;;7.56;100.00;92592.34;4979485;28;20038;-79
2023/03/13 07:23:47;;;;;;;5.30;3.50;;;;;;;7.54;100.00;92591.84;4977820;28;20046;-80
2023/03/13 07:26:14;;;;;;;7.18;2.95;;;;;;;7.60;100.00;92601.22;4980046;28;20081;-80
2023/03/13 07:28:40;;;;;;;4.70;2.97;;;;;;;7.69;100.00;92606.66;4963410;28;20059;-79
2023/03/13 07:31:17;;;;;;;6.55;3.42;;;;;;;7.62;100.00;92599.13;4959508;28;20044;-80
2023/03/13 07:33:44;;;;;;;6.72;3.35;;;;;;;7.61;100.00;92608.00;4960070;28;20211;-81
2023/03/13 07:36:10;;;;;;;4.95;3.22;;;;;;;7.79;100.00;92598.84;4959045;28;20027;-80
2023/03/13 07:38:36;;;;;;;6.03;3.03;;;;;;;8.26;100.00;92599.41;4960001;29;20123;-81
2023/03/13 07:41:02;;;;;;;4.43;3.00;;;;;;;8.47;100.00;92597.53;4961256;28;20051;-79
2023/03/13 07:43:31;;;;;;;5.53;3.03;;;;;;;8.54;100.00;92611.03;4975607;28;20058;-79
2023/03/13 07:45:56;;;;;;;6.47;3.15;;;;;;;8.63;100.00;92616.47;4960134;28;20081;-79
2023/03/13 07:48:24;;;;;;;5.82;3.15;;;;;;;8.95;100.00;92608.16;4970831;28;20039;-79
2023/03/13 07:50:50;;;;;;;7.43;2.95;;;;;;;8.71;100.00;92605.44;4959837;28;20386;-79
2023/03/13 07:53:20;;;;;;;5.85;2.80;;;;;;;8.75;100.00;92614.28;4968412;28;20041;-79
2023/03/13 07:56:05;;;;;;;6.38;2.67;;;;;;;8.42;100.00;92616.59;4967955;28;20043;-80
2023/03/13 07:58:34;;;;;;;4.75;2.50;;;;;;;8.19;100.00;92607.53;4968855;28;20516;-82
2023/03/13 08:01:23;;;;;;;3.72;2.47;;;;;;;8.16;100.00;92607.28;4962495;28;20089;-79
2023/03/13 08:03:49;;;;;;;4.68;2.90;;;;;;;7.74;100.00;92598.03;4960618;29;20035;-80
2023/03/13 08:06:20;;;;;;;6.25;3.40;;;;;;;7.57;100.00;92588.72;4975515;28;20078;-79
2023/03/13 08:08:46;;;;;;;5.82;3.00;;;;;;;7.69;100.00;92589.19;4961942;28;20066;-80
2023/03/13 08:11:14;;;;;;;6.72;3.35;;;;;;;7.72;100.00;92578.25;4980750;28;20049;-79
2023/03/13 08:13:41;;;;;;;6.72;3.15;;;;;;;7.98;100.00;92585.19;4976676;28;20054;-78
2023/03/13 08:16:15;;;;;;;5.72;3.10;;;;;;;8.07;100.00;92578.38;4976972;28;20604;-78
2023/03/13 08:18:48;;;;;;;6.05;3.08;;;;;;;7.95;100.00;92583.91;4977775;28;20304;-78
2023/03/13 08:21:25;;;;;;;8.15;3.30;;;;;;;7.85;100.00;92570.91;4969618;28;20049;-78
2023/03/13 08:23:59;;;;;;;5.57;2.80;;;;;;;7.78;100.00;92565.97;4978609;28;20043;-78
2023/03/13 08:26:28;;;;;;;4.68;2.75;;;;;;;7.54;100.00;92581.41;4979080;28;20035;-78
2023/03/13 08:29:05;;;;;;;7.25;2.92;;;;;;;7.57;100.00;92595.75;4980484;28;20037;-79
2023/03/13 08:31:41;;;;;;;6.95;2.90;;;;;;;7.70;100.00;92598.59;4979459;28;20035;-78
2023/03/13 08:34:07;;;;;;;5.38;2.95;;;;;;;7.88;100.00;92594.63;4977689;28;20404;-78
2023/03/13 08:36:35;;;;;;;7.32;3.20;;;;;;;8.10;100.00;92604.69;4976349;28;20038;-78
2023/03/13 08:39:04;;;;;;;6.90;3.33;;;;;;;7.90;100.00;92610.78;4976935;28;20374;-78
2023/03/13 08:41:36;;;;;;;6.45;3.20;;;;;;;7.86;100.00;92608.97;4977563;28;20362;-78
2023/03/13 08:44:11;;;;;;;7.70;3.20;;;;;;;7.90;100.00;92596.94;4977434;28;20038;-78
2023/03/13 08:46:37;;;;;;;4.70;2.53;;;;;;;8.19;100.00;92593.72;4977382;28;20122;-78
2023/03/13 08:49:04;;;;;;;4.90;3.00;;;;;;;8.25;100.00;92600.47;4959517;28;20019;-79
2023/03/13 08:51:30;;;;;;;6.25;2.88;;;;;;;8.20;100.00;92605.72;4979526;28;20064;-79
2023/03/13 08:53:56;;;;;;;5.35;2.80;;;;;;;8.27;100.00;92606.97;4979562;28;20074;-78
2023/03/13 08:56:24;;;;;;;6.68;3.30;;;;;;;8.23;100.00;92603.34;4979362;28;20039;-79
2023/03/13 08:58:55;;;;;;;3.88;2.25;;;;;;;8.55;100.00;92607.38;4980222;28;20027;-79
2023/03/13 09:01:23;;;;;;;4.82;2.60;;;;;;;8.78;100.00;92603.34;4959963;28;20043;-78
2023/03/13 09:03:50;;;;;;;4.47;2.50;;;;;;;8.72;100.00;92599.97;4956601;29;20047;-78
2023/03/13 09:06:16;;;;;;;4.63;2.70;;;;;;;8.69;100.00;92605.72;4972616;28;20449;-79
2023/03/13 09:08:43;;;;;;;6.13;3.00;;;;;;;8.63;100.00;92609.41;4957651;28;20040;-78
2023/03/13 09:11:11;;;;;;;5.60;3.10;;;;;;;8.56;100.00;92608.94;4957627;29;20050;-78
2023/03/13 09:13:42;;;;;;;10.45;2.90;;;;;;;8.66;100.00;92597.66;4957455;28;20118;-78
2023/03/13 09:16:11;;;;;;;7.28;2.80;;;;;;;8.49;100.00;92611.84;4956972;28;20036;-78
2023/03/13 09:18:37;;;;;;;7.32;2.97;;;;;;;8.91;100.00;92615.75;4958326;28;20043;-78
2023/03/13 09:21:10;;;;;;;4.00;2.50;;;;;;;9.29;100.00;92621.19;4958010;29;20440;-79
2023/03/13 09:23:36;;;;;;;4.68;3.00;;;;;;;9.55;100.00;92626.22;4959627;29;20031;-80
2023/03/13 09:26:04;;;;;;;5.18;2.90;;;;;;;10.02;100.00;92614.25;4959303;29;20040;-80
2023/03/13 09:28:33;;;;;;;4.32;2.60;;;;;;;10.38;100.00;92616.44;4959842;28;20505;-79
2023/03/13 09:31:08;;;;;;;4.43;2.70;;;;;;;10.75;99.99;92613.06;4960892;28;20097;-79
2023/03/13 09:33:35;;;;;;;4.47;2.55;;;;;;;10.80;95.51;92610.38;4978705;28;20049;-79
2023/03/13 09:36:01;;;;;;;4.55;2.60;;;;;;;10.42;100.00;92601.72;4979730;28;20027;-79
2023/03/13 09:38:28;;;;;;;5.07;2.88;;;;;;;10.66;100.00;92595.69;4979520;28;20042;-79
2023/03/13 09:40:54;;;;;;;4.13;2.25;;;;;;;10.33;100.00;92590.34;4979169;28;20054;-79
2023/03/13 09:43:34;;;;;;;4.82;2.80;;;;;;;10.24;100.00;92589.38;4978009;28;20034;-79
2023/03/13 09:46:05;;;;;;;6.47;2.88;;;;;;;10.01;100.00;92596.97;4978382;28;20042;-79
2023/03/13 09:48:36;;;;;;;4.68;2.60;;;;;;;10.15;100.00;92592.63;4979270;28;20045;-79
2023/03/13 09:51:17;;;;;;;5.13;2.90;;;;;;;10.07;100.00;92595.09;4979037;28;20039;-79
2023/03/13 09:53:55;;;;;;;6.20;2.53;;;;;;;10.44;100.00;92599.63;4967990;28;20039;-79
2023/03/13 09:56:28;;;;;;;4.20;2.63;;;;;;;10.54;100.00;92599.50;4958671;28;20063;-79
2023/03/13 09:58:55;;;;;;;;;;;;;;;10.93;98.65;92587.94;4960582;28;20047;-79
2023/03/13 10:01:27;;;;;;;5.40;2.78;;;;;;;11.45;95.58;92586.06;4961135;29;20296;-79
2023/03/13 10:04:17;;;;;;;5.40;2.92;;;;;;;11.99;92.90;92594.28;4966293;28;20735;-79
2023/03/13 10:06:47;;;;;;;6.18;2.78;;;;;;;12.27;91.09;92597.69;4979284;28;20066;-79
2023/03/13 10:09:25;;;;;;;4.57;1.90;;;;;;;12.24;87.97;92600.88;4962966;28;20053;-79
2023/03/13 10:12:23;;;;;;;4.63;2.25;;;;;;;11.56;91.19;92599.75;4978160;28;20101;-79
2023/03/13 10:15:31;;;;;;;4.50;2.50;;;;;;;11.26;94.91;92598.44;4971375;28;20045;-79
2023/03/13 10:17:59;;;;;;;6.25;2.80;;;;;;;11.21;95.31;92588.81;4959944;29;20085;-79
2023/03/13 10:20:35;;;;;;;5.35;2.60;;;;;;;11.50;94.11;92582.56;4959030;29;20041;-80
2023/03/13 10:23:14;;;;;;;5.38;2.63;;;;;;;11.16;94.56;92582.88;4960388;28;20043;-79
2023/03/13 10:25:40;;;;;;;5.72;2.72;;;;;;;10.92;98.40;92581.16;4969862;28;20515;-80
2023/03/13 10:28:16;;;;;;;4.28;2.42;;;;;;;10.78;97.07;92575.06;4979115;28;20098;-80
2023/03/13 10:31:08;;;;;;;6.45;2.90;;;;;;;10.80;98.54;92580.81;4978491;28;20035;-79
2023/03/13 10:33:37;;;;;;;5.13;2.88;;;;;;;10.68;99.30;92572.63;4974701;28;20046;-80
2023/03/13 10:36:12;;;;;;;6.38;3.05;;;;;;;10.59;100.00;92570.63;4965715;28;20524;-80
2023/03/13 10:38:52;;;;;;;6.00;2.40;;;;;;;10.69;98.22;92564.47;4959302;29;20043;-79
2023/03/13 10:41:32;;;;;;;5.85;2.65;;;;;;;10.53;100.00;92569.13;4974483;28;20047;-79
2023/03/13 10:44:03;;;;;;;4.30;2.58;;;;;;;10.40;100.00;92564.59;4958247;29;20129;-79
2023/03/13 10:46:31;;;;;;;5.97;2.50;;;;;;;10.57;99.27;92551.03;4958435;28;20489;-79
2023/03/13 10:49:01;;;;;;;7.13;2.70;;;;;;;10.73;100.00;92556.81;4957239;29;20447;-79
2023/03/13 10:51:49;;;;;;;2.40;1.67;;;;;;;11.40;97.58;92546.81;4959728;29;20035;-79
2023/03/13 10:54:22;;;;;;;5.10;2.50;;;;;;;11.42;96.44;92528.97;4962271;28;20047;-79
2023/03/13 10:56:50;;;;;;;5.95;2.53;;;;;;;11.65;89.74;92521.22;4970935;28;20122;-79
2023/03/13 10:59:25;;;;;;;5.35;2.65;;;;;;;11.99;89.35;92531.34;4982231;28;20034;-79
2023/03/13 11:01:52;;;;;;;3.53;2.17;;;;;;;12.15;89.49;92534.41;4980000;28;20107;-79
2023/03/13 11:04:38;;;;;;;4.35;2.58;;;;;;;12.24;87.25;92545.78;4981964;28;20173;-79
2023/03/13 11:07:19;;;;;;;3.63;1.95;;;;;;;12.50;84.14;92534.75;4980576;28;20030;-79
2023/03/13 11:10:19;;;;;;;5.13;2.70;;;;;;;11.82;88.06;92539.78;4982463;28;20129;-80
2023/03/13 11:12:52;;;;;;;3.95;2.40;;;;;;;11.59;90.35;92528.38;4944343;28;20059;-79
2023/03/13 11:15:28;;;;;;;5.47;2.13;;;;;;;11.51;92.71;92528.31;4967540;28;20031;-79
2023/03/13 11:18:04;;;;;;;5.38;2.17;;;;;;;12.14;90.40;92527.63;4982400;28;20060;-79
2023/03/13 11:20:35;;;;;;;4.30;2.50;;;;;;;12.15;87.39;92526.53;4982371;28;20070;-79
2023/03/13 11:23:22;;;;;;;4.80;2.33;;;;;;;12.16;89.42;92520.25;4997552;28;20085;-79
2023/03/13 11:26:25;;;;;;;2.65;1.70;;;;;;;12.15;88.81;92526.53;4980265;28;20031;-79
2023/03/13 11:29:00;;;;;;;5.25;2.13;;;;;;;12.45;87.76;92526.97;4982204;28;20042;-79
2023/03/13 11:31:45;;;;;;;3.13;2.15;;;;;;;12.02;88.67;92522.09;4983359;28;20043;-79
2023/03/13 11:34:25;;;;;;;5.30;2.63;;;;;;;11.82;88.92;92526.66;4982944;28;20037;-79
2023/03/13 11:37:13;;;;;;;4.47;2.10;;;;;;;12.12;90.12;92514.03;4981040;28;20043;-79
2023/03/13 11:40:04;;;;;;;4.65;2.17;;;;;;;12.51;88.19;92504.78;4981226;28;20231;-79
2023/03/13 11:42:43;;;;;;;4.13;2.10;;;;;;;12.31;86.55;92510.47;4982072;28;20042;-79
2023/03/13 11:45:21;;;;;;;3.35;1.98;;;;;;;12.13;88.19;92499.81;4981518;28;20031;-79
2023/03/13 11:47:56;;;;;;;3.50;2.03;;;;;;;11.83;89.86;92501.97;4981541;28;20086;-80
2023/03/13 11:50:24;;;;;;;4.10;1.92;;;;;;;11.56;90.21;92505.38;4979952;28;20093;-80
2023/03/13 11:53:28;;;;;;;4.47;2.10;;;;;;;11.63;91.57;92497.91;4981708;28;20027;-79
2023/03/13 11:55:59;;;;;;;4.82;2.63;;;;;;;11.56;91.25;92499.38;4964306;28;20053;-79
2023/03/13 11:58:45;;;;;;;6.87;2.43;;;;;;;11.42;92.45;92502.75;4981126;28;20436;-79
2023/03/13 12:01:18;;;;;;;4.43;2.25;;;;;;;11.34;93.29;92495.56;4980021;28;20297;-80
2023/03/13 12:03:50;;;;;;;4.45;2.00;;;;;;;11.31;94.61;92501.38;4996471;28;20497;-79
2023/03/13 12:06:29;;;;;;;4.00;2.10;;;;;;;11.19;93.17;92487.97;4981115;28;20400;-79
2023/03/13 12:09:06;;;;;;;5.93;2.40;;;;;;;11.29;93.89;92493.03;4980373;28;20035;-79
2023/03/13 12:12:10;;;;;;;3.28;2.00;;;;;;;11.13;93.72;92489.91;4978834;28;20099;-79
2023/03/13 12:14:41;;;;;;;5.30;2.30;;;;;;;11.29;93.53;92487.81;4960294;29;20067;-79
2023/03/13 12:17:21;;;;;;;3.33;2.10;;;;;;;11.37;93.56;92479.28;4961128;29;20065;-79
2023/03/13 12:20:16;;;;;;;5.60;2.25;;;;;;;11.55;93.61;92468.97;4960893;29;20046;-79
2023/03/13 12:23:17;;;;;;;4.03;2.22;;;;;;;11.50;93.61;92472.47;4960535;28;20051;-79
2023/03/13 12:25:57;;;;;;;4.20;2.03;;;;;;;11.41;93.51;92459.25;4961380;29;20039;-79
2023/03/13 12:28:32;;;;;;;4.18;1.75;;;;;;;11.41;91.90;92456.63;4961512;29;20046;-79
2023/03/13 12:31:06;;;;;;;5.15;2.20;;;;;;;10.75;94.66;92468.28;4961351;28;20063;-80
2023/03/13 12:34:17;;;;;;;7.22;2.50;;;;;;;10.48;96.17;92453.28;4960929;28;20121;-79
2023/03/13 12:37:17;;;;;;;4.07;2.33;;;;;;;10.70;96.40;92455.31;4946892;29;20039;-80